Time;durP1;ratioP1;P1;durP2;ratioP2;P2;SDS_P1;SDS_P2;PMS_P1;PMS_P2;Temp;Humidity;BMP_temperature;BMP_pressure;BME280_temperature;BME280_humidity;BME280_pressure;Samples;Min_cycle;Max_cycle;Signal;HPM_P1;HPM_P2
2022/12/04 00:00:47;;;;;;;1999.90;999.90;;;3.90;99.90;;;;;;5112785;28;20486;-75
2022/12/04 00:03:13;;;;;;;1999.90;999.90;;;5.80;99.90;;;;;;5112443;28;20483;-75
2022/12/04 00:05:39;;;;;;;1999.90;999.90;;;4.30;94.10;;;;;;5112794;28;20043;-76
2022/12/04 00:08:04;;;;;;;1999.90;999.90;;;4.00;83.00;;;;;;5112183;28;20039;-82
2022/12/04 00:10:32;;;;;;;1999.90;999.90;;;4.70;90.90;;;;;;5112773;28;20044;-81
2022/12/04 00:12:58;;;;;;;;;;;4.00;91.30;;;;;;5113185;28;20085;-75
2022/12/04 00:15:24;;;;;;;1999.90;999.90;;;3.60;99.90;;;;;;5112392;28;20132;-75
2022/12/04 00:17:49;;;;;;;1999.90;999.90;;;3.90;88.20;;;;;;5112585;28;20054;-75
2022/12/04 00:20:15;;;;;;;1999.90;999.90;;;4.20;95.80;;;;;;5093970;28;20051;-75
2022/12/04 00:22:41;;;;;;;1999.90;999.90;;;4.00;89.60;;;;;;5114301;28;20153;-75
2022/12/04 00:25:07;;;;;;;1999.90;999.90;;;4.00;97.20;;;;;;5096090;28;20115;-81
2022/12/04 00:27:33;;;;;;;1999.90;999.90;;;4.00;84.50;;;;;;5094263;28;20152;-75
2022/12/04 00:29:58;;;;;;;1999.90;999.90;;;5.40;89.20;;;;;;5112499;28;20048;-82
2022/12/04 00:32:24;;;;;;;1999.90;999.90;;;4.00;91.90;;;;;;5111609;28;20048;-81
2022/12/04 00:34:53;;;;;;;1999.90;999.90;;;4.90;59.60;;;;;;5113524;28;20067;-76
2022/12/04 00:37:18;;;;;;;1999.90;999.90;;;5.30;69.60;;;;;;5112588;28;20044;-75
2022/12/04 00:39:44;;;;;;;1999.90;999.90;;;3.20;98.50;;;;;;5112497;28;20046;-79
2022/12/04 00:42:10;;;;;;;1999.90;999.90;;;3.90;93.40;;;;;;5111977;28;20059;-81
2022/12/04 00:44:35;;;;;;;1999.90;999.90;;;3.80;64.60;;;;;;5114395;28;20046;-75
2022/12/04 00:47:01;;;;;;;1999.90;999.90;;;;;;;;;;5095817;28;20288;-75
2022/12/04 00:49:27;;;;;;;1999.90;999.90;;;5.20;97.00;;;;;;5112767;28;20130;-76
2022/12/04 00:51:53;;;;;;;1999.90;999.90;;;5.70;50.80;;;;;;5112851;28;20123;-76
2022/12/04 00:54:18;;;;;;;1999.90;999.90;;;5.00;66.00;;;;;;5112335;28;20043;-75
2022/12/04 00:56:44;;;;;;;1999.90;999.90;;;3.90;68.20;;;;;;5094387;28;20040;-75
2022/12/04 00:59:10;;;;;;;1999.90;999.90;;;4.30;78.90;;;;;;5113088;28;20059;-81
2022/12/04 01:01:35;;;;;;;1999.90;999.90;;;3.80;64.50;;;;;;5111144;28;20472;-75
2022/12/04 01:04:01;;;;;;;1999.90;999.90;;;3.80;99.10;;;;;;5093136;28;20062;-75
2022/12/04 01:06:33;;;;;;;1999.90;999.90;;;3.90;99.90;;;;;;5092741;28;20043;-75
2022/12/04 01:09:00;;;;;;;1999.90;999.90;;;3.10;82.10;;;;;;5092683;28;20078;-75
2022/12/04 01:11:28;;;;;;;1999.90;999.90;;;4.90;66.90;;;;;;5109590;28;20048;-73
2022/12/04 01:13:54;;;;;;;1999.90;999.90;;;3.40;69.40;;;;;;5111845;28;20075;-74
2022/12/04 01:16:23;;;;;;;1999.90;999.90;;;3.20;74.30;;;;;;5111037;28;20062;-78
2022/12/04 01:18:50;;;;;;;1999.90;999.90;;;6.00;72.80;;;;;;5111113;28;20222;-74
2022/12/04 01:21:16;;;;;;;1999.90;999.90;;;5.00;61.10;;;;;;5111124;28;20054;-78
2022/12/04 01:23:43;;;;;;;1999.90;999.90;;;5.60;46.70;;;;;;5112912;28;20032;-74
2022/12/04 01:26:09;;;;;;;1999.90;999.90;;;4.80;52.40;;;;;;5112031;28;20048;-78
2022/12/04 01:28:35;;;;;;;1999.90;999.90;;;3.90;49.20;;;;;;5110700;28;20059;-79
2022/12/04 01:31:04;;;;;;;1999.90;999.90;;;4.30;48.00;;;;;;5111244;28;20044;-74
2022/12/04 01:33:31;;;;;;;1999.90;999.90;;;3.90;49.90;;;;;;5110586;28;20584;-79
2022/12/04 01:35:59;;;;;;;1999.90;999.90;;;4.00;64.10;;;;;;5111318;28;20070;-73
2022/12/04 01:38:25;;;;;;;1999.90;999.90;;;3.20;60.30;;;;;;5092548;28;20292;-74
2022/12/04 01:40:51;;;;;;;1999.90;999.90;;;3.80;39.50;;;;;;5111012;28;20062;-80
2022/12/04 01:43:17;;;;;;;1999.90;999.90;;;4.70;47.70;;;;;;5110958;28;20471;-80
2022/12/04 01:45:49;;;;;;;1999.90;999.90;;;5.60;41.10;;;;;;5092865;28;20047;-78
2022/12/04 01:48:24;;;;;;;1999.90;999.90;;;3.30;71.70;;;;;;5110640;28;20048;-76
2022/12/04 01:50:55;;;;;;;1999.90;999.90;;;3.80;51.20;;;;;;5109616;28;20082;-74
2022/12/04 01:53:21;;;;;;;1999.90;999.90;;;5.10;42.50;;;;;;5092111;28;20109;-76
2022/12/04 01:55:48;;;;;;;1999.90;999.90;;;6.00;51.90;;;;;;5112407;28;20039;-74
2022/12/04 01:58:16;;;;;;;1999.90;999.90;;;3.80;79.90;;;;;;5110451;28;20094;-73
2022/12/04 02:00:43;;;;;;;1999.90;999.90;;;5.40;86.20;;;;;;5109819;28;20313;-74
2022/12/04 02:03:08;;;;;;;1999.90;999.90;;;3.50;55.80;;;;;;5110351;28;20084;-78
2022/12/04 02:05:34;;;;;;;1999.90;999.90;;;3.40;96.30;;;;;;5092646;28;20043;-74
2022/12/04 02:08:04;;;;;;;1999.90;999.90;;;5.30;67.10;;;;;;5110291;28;20090;-76
2022/12/04 02:10:57;;;;;;;1999.90;999.90;;;4.70;89.20;;;;;;5109742;28;20047;-73
2022/12/04 02:13:37;;;;;;;1999.90;999.90;;;3.90;83.20;;;;;;5084224;28;20167;-74
2022/12/04 02:16:13;;;;;;;1999.90;999.90;;;3.80;56.40;;;;;;5110673;28;20488;-79
2022/12/04 02:18:47;;;;;;;1999.90;999.90;;;3.60;79.90;;;;;;5110416;28;20040;-75
2022/12/04 02:21:27;;;;;;;1999.90;999.90;;;3.90;87.40;;;;;;5110436;28;20085;-74
2022/12/04 02:24:30;;;;;;;1999.90;999.90;;;3.60;91.70;;;;;;5111444;28;20438;-74
2022/12/04 02:27:19;;;;;;;1999.90;999.90;;;3.80;65.50;;;;;;5110867;28;20051;-79
2022/12/04 02:30:07;;;;;;;1999.90;999.90;;;3.80;68.90;;;;;;5110288;28;20051;-74
2022/12/04 02:33:06;;;;;;;1999.90;999.90;;;3.00;85.10;;;;;;5091519;28;20056;-74
2022/12/04 02:35:45;;;;;;;1999.90;999.90;;;3.50;96.60;;;;;;5108822;28;20051;-75
2022/12/04 02:38:28;;;;;;;1999.90;999.90;;;5.30;69.10;;;;;;5110224;28;20047;-74
2022/12/04 02:41:00;;;;;;;1999.90;999.90;;;4.20;90.10;;;;;;5110627;28;20104;-74
2022/12/04 02:43:41;;;;;;;1999.90;999.90;;;3.80;66.20;;;;;;5109259;28;20480;-78
2022/12/04 02:46:35;;;;;;;1999.90;999.90;;;3.80;70.80;;;;;;5092002;28;20048;-73
2022/12/04 02:49:04;;;;;;;1999.90;999.90;;;3.80;72.80;;;;;;5103460;28;20147;-74
2022/12/04 02:51:36;;;;;;;1999.90;999.90;;;3.90;95.40;;;;;;5110720;28;20134;-77
2022/12/04 02:54:13;;;;;;;1999.90;999.90;;;5.80;78.00;;;;;;5110148;28;20424;-77
2022/12/04 02:56:43;;;;;;;1999.90;999.90;;;5.70;85.60;;;;;;5110017;28;20051;-75
2022/12/04 02:59:19;;;;;;;1999.90;999.90;;;3.70;99.90;;;;;;5110216;28;20055;-78
2022/12/04 03:01:50;;;;;;;1999.90;999.90;;;3.70;99.90;;;;;;5109313;28;20480;-76
2022/12/04 03:04:25;;;;;;;1999.90;999.90;;;4.50;99.90;;;;;;5109916;28;20269;-74
2022/12/04 03:07:00;;;;;;;1999.90;999.90;;;3.80;99.90;;;;;;5109296;28;20044;-73
2022/12/04 03:09:56;;;;;;;1999.90;999.90;;;4.20;99.90;;;;;;5110373;28;20040;-72
2022/12/04 03:12:43;;;;;;;1999.90;999.90;;;2.90;99.90;;;;;;5113783;28;20532;-73
2022/12/04 03:15:22;;;;;;;1999.90;999.90;;;3.70;76.60;;;;;;5116648;28;20164;-75
2022/12/04 03:18:13;;;;;;;1999.90;999.90;;;3.80;64.90;;;;;;5114781;28;20358;-74
2022/12/04 03:20:41;;;;;;;1999.90;999.90;;;3.60;78.70;;;;;;5568175;22;20064;-74
2022/12/04 03:23:13;;;;;;;1999.90;999.90;;;4.20;71.80;;;;;;5066671;28;20049;-73
2022/12/04 03:25:56;;;;;;;1999.90;999.90;;;5.30;93.80;;;;;;5069091;28;20052;-76
2022/12/04 03:28:36;;;;;;;1999.90;999.90;;;3.70;67.40;;;;;;5061096;28;20044;-75
2022/12/04 03:31:06;;;;;;;1999.90;999.90;;;3.10;99.90;;;;;;5067118;28;20048;-75
2022/12/04 03:33:45;;;;;;;1999.90;999.90;;;5.60;79.80;;;;;;5044900;28;20481;-73
2022/12/04 03:36:15;;;;;;;;;;;3.60;79.30;;;;;;5063617;28;20059;-74
2022/12/04 03:39:16;;;;;;;1999.90;999.90;;;4.90;99.90;;;;;;5043242;28;20288;-76
2022/12/04 03:41:47;;;;;;;1999.90;999.90;;;3.10;99.90;;;;;;5054569;28;20044;-74
2022/12/04 03:44:24;;;;;;;1999.90;999.90;;;3.80;99.90;;;;;;5061653;28;20519;-73
2022/12/04 03:46:56;;;;;;;1999.90;999.90;;;3.80;99.90;;;;;;5059752;28;21272;-77
2022/12/04 03:49:26;;;;;;;1999.90;999.90;;;3.60;96.10;;;;;;5043202;28;20044;-76
2022/12/04 03:52:09;;;;;;;1999.90;999.90;;;5.20;98.60;;;;;;5064191;28;20044;-73
2022/12/04 03:55:22;;;;;;;1999.90;999.90;;;4.70;99.90;;;;;;5047660;28;20154;-74
2022/12/04 03:57:49;;;;;;;1999.90;999.90;;;4.10;99.90;;;;;;5063149;28;20170;-73
2022/12/04 04:00:21;;;;;;;1999.90;999.90;;;4.90;99.90;;;;;;5065169;28;20424;-73
2022/12/04 04:02:52;;;;;;;1999.90;999.90;;;3.00;99.90;;;;;;5060363;28;20052;-73
2022/12/04 04:05:19;;;;;;;1999.90;999.90;;;3.50;99.90;;;;;;5056792;28;20039;-73
2022/12/04 04:07:54;;;;;;;1999.90;999.90;;;3.70;99.90;;;;;;5067000;28;20071;-74
2022/12/04 04:10:24;;;;;;;1999.90;999.90;;;3.40;99.90;;;;;;5068739;28;20084;-78
2022/12/04 04:24:30;;;;;;;1999.90;999.90;;;3.30;99.90;;;;;;5060519;28;21767;-75
2022/12/04 04:26:58;;;;;;;1999.90;999.90;;;3.30;99.90;;;;;;5061180;28;20576;-77
2022/12/04 04:29:24;;;;;;;1999.90;999.90;;;6.00;99.90;;;;;;5043374;28;20083;-75
2022/12/04 04:31:59;;;;;;;1999.90;999.90;;;3.40;99.90;;;;;;5059571;28;20128;-74
2022/12/04 04:34:37;;;;;;;1999.90;999.90;;;5.30;99.90;;;;;;5061884;28;20052;-74
2022/12/04 04:37:18;;;;;;;1999.90;999.90;;;3.50;99.90;;;;;;5058688;28;20197;-74
2022/12/04 04:39:47;;;;;;;1999.90;999.90;;;2.40;99.90;;;;;;5060151;28;20047;-74
2022/12/04 04:42:20;;;;;;;1999.90;999.90;;;3.40;99.90;;;;;;5061253;28;20048;-75
2022/12/04 04:45:09;;;;;;;1999.90;999.90;;;5.70;99.90;;;;;;5061266;28;20167;-74
2022/12/04 04:47:47;;;;;;;1999.90;999.90;;;4.70;99.90;;;;;;5042715;28;20496;-79
2022/12/04 04:50:15;;;;;;;1999.90;999.90;;;3.10;99.90;;;;;;5060323;28;20062;-74
2022/12/04 04:52:45;;;;;;;1999.90;999.90;;;4.60;99.90;;;;;;5061240;28;20044;-74
2022/12/04 04:55:13;;;;;;;1999.90;999.90;;;3.50;99.90;;;;;;5063575;28;20431;-73
2022/12/04 04:57:39;;;;;;;1999.90;999.90;;;3.60;99.90;;;;;;5059800;28;20084;-79
2022/12/04 05:00:11;;;;;;;1999.90;999.90;;;3.20;99.90;;;;;;5045258;28;20218;-75
2022/12/04 05:02:37;;;;;;;1999.90;999.90;;;3.50;99.90;;;;;;5058758;28;20645;-79
2022/12/04 05:05:03;;;;;;;1999.90;999.90;;;5.40;99.90;;;;;;5061878;28;20076;-73
2022/12/04 05:07:28;;;;;;;1999.90;999.90;;;3.20;99.90;;;;;;5057400;28;20137;-77
2022/12/04 05:09:54;;;;;;;1999.90;999.90;;;3.00;99.90;;;;;;5059885;28;20088;-73
2022/12/04 05:12:20;;;;;;;1999.90;999.90;;;3.20;99.90;;;;;;5058541;28;20056;-77
2022/12/04 05:14:47;;;;;;;1999.90;999.90;;;3.40;99.90;;;;;;5063116;28;21711;-74
2022/12/04 05:17:13;;;;;;;1999.90;999.90;;;3.50;99.90;;;;;;5059853;28;20055;-74
2022/12/04 05:19:54;;;;;;;1999.90;999.90;;;3.30;99.90;;;;;;5059546;28;20044;-79
2022/12/04 05:22:22;;;;;;;1999.90;999.90;;;5.00;99.90;;;;;;5057737;28;20136;-74
2022/12/04 05:24:47;;;;;;;1999.90;999.90;;;3.30;99.90;;;;;;5063114;28;20043;-74
2022/12/04 05:27:13;;;;;;;1999.90;999.90;;;3.50;99.90;;;;;;5041468;28;20040;-74
2022/12/04 05:29:39;;;;;;;1999.90;999.90;;;5.20;99.90;;;;;;5041594;28;20067;-79
2022/12/04 05:32:05;;;;;;;1999.90;999.90;;;5.30;99.90;;;;;;5059188;28;20049;-77
2022/12/04 05:34:31;;;;;;;1999.90;999.90;;;3.50;99.90;;;;;;5040151;28;20113;-75
2022/12/04 05:36:56;;;;;;;1999.90;999.90;;;3.40;99.90;;;;;;5059049;28;20056;-75
2022/12/04 05:39:22;;;;;;;1999.90;999.90;;;3.20;99.90;;;;;;5041390;28;20052;-74
2022/12/04 05:41:48;;;;;;;1999.90;999.90;;;3.70;99.90;;;;;;5058087;28;20040;-75
2022/12/04 05:44:13;;;;;;;1999.90;999.90;;;3.50;99.90;;;;;;5058310;28;20127;-74
2022/12/04 05:46:39;;;;;;;1999.90;999.90;;;;;;;;;;5067086;28;20040;-80
2022/12/04 05:49:06;;;;;;;1999.90;999.90;;;;;;;;;;5056999;28;20059;-75
2022/12/04 05:51:31;;;;;;;1999.90;999.90;;;3.50;99.50;;;;;;5064301;28;20051;-74
2022/12/04 05:53:57;;;;;;;1999.90;999.90;;;3.80;99.90;;;;;;5065944;28;20032;-75
2022/12/04 05:56:23;;;;;;;1999.90;999.90;;;3.10;99.90;;;;;;5048019;28;20090;-75
2022/12/04 05:58:48;;;;;;;1999.90;999.90;;;4.00;99.90;;;;;;5054512;28;20052;-77
2022/12/04 06:01:17;;;;;;;1999.90;999.90;;;3.30;99.90;;;;;;5042887;28;20086;-75
2022/12/04 06:03:43;;;;;;;1999.90;999.90;;;4.00;99.90;;;;;;5058358;28;20040;-80
2022/12/04 06:06:23;;;;;;;1999.90;999.90;;;2.70;99.90;;;;;;5041199;28;20040;-75
2022/12/04 06:08:51;;;;;;;1999.90;999.90;;;3.50;99.90;;;;;;5057609;28;20590;-75
2022/12/04 06:11:20;;;;;;;1999.90;999.90;;;3.90;99.90;;;;;;5059549;28;20048;-76
2022/12/04 06:13:48;;;;;;;1999.90;999.90;;;3.80;99.90;;;;;;5058225;28;20281;-75
2022/12/04 06:16:22;;;;;;;1999.90;999.90;;;3.30;99.90;;;;;;5058688;28;20040;-76
2022/12/04 06:18:53;;;;;;;1999.90;999.90;;;3.60;99.90;;;;;;5049496;28;20440;-75
2022/12/04 06:21:21;;;;;;;1999.90;999.90;;;5.50;99.90;;;;;;5058968;28;20493;-74
2022/12/04 06:23:47;;;;;;;1999.90;999.90;;;3.60;99.90;;;;;;5039990;28;20126;-77
2022/12/04 06:26:13;;;;;;;1999.90;999.90;;;3.50;99.90;;;;;;5060512;28;20071;-75
2022/12/04 06:28:39;;;;;;;1999.90;999.90;;;3.60;99.90;;;;;;5057576;28;20040;-75
2022/12/04 06:31:07;;;;;;;1999.90;999.90;;;2.90;99.90;;;;;;5040375;28;20056;-75
2022/12/04 06:33:35;;;;;;;1999.90;999.90;;;1.20;99.90;;;;;;5055992;28;20040;-74
2022/12/04 06:36:12;;;;;;;1999.90;999.90;;;4.30;99.90;;;;;;5057767;28;20515;-74
2022/12/04 06:38:38;;;;;;;1999.90;999.90;;;3.70;99.90;;;;;;5040540;28;20063;-75
2022/12/04 06:41:06;;;;;;;1999.90;999.90;;;3.70;99.90;;;;;;5057963;28;20040;-76
2022/12/04 06:43:32;;;;;;;1999.90;999.90;;;5.70;99.90;;;;;;5040252;28;20135;-74
2022/12/04 06:46:04;;;;;;;1999.90;999.90;;;3.50;99.90;;;;;;5040971;28;20059;-74
2022/12/04 06:48:30;;;;;;;1999.90;999.90;;;;;;;;;;5056748;28;20052;-78
2022/12/04 06:51:07;;;;;;;1999.90;999.90;;;3.60;99.90;;;;;;5039881;28;20139;-75
2022/12/04 06:53:33;;;;;;;1999.90;999.90;;;3.60;99.90;;;;;;5059243;28;20437;-75
2022/12/04 06:56:01;;;;;;;1999.90;999.90;;;3.70;99.90;;;;;;5060937;28;20049;-81
2022/12/04 06:58:28;;;;;;;1999.90;999.90;;;6.00;99.90;;;;;;5057590;28;21721;-78
2022/12/04 07:00:55;;;;;;;1999.90;999.90;;;3.50;99.90;;;;;;5037949;28;20047;-74
2022/12/04 07:03:22;;;;;;;1999.90;999.90;;;3.60;99.90;;;;;;5041346;28;20036;-74
2022/12/04 07:05:47;;;;;;;1999.90;999.90;;;3.30;99.90;;;;;;5064984;28;20514;-75
2022/12/04 07:08:13;;;;;;;1999.90;999.90;;;4.80;99.90;;;;;;5060224;28;20048;-74
2022/12/04 07:10:39;;;;;;;1999.90;999.90;;;3.70;99.90;;;;;;5041155;28;20075;-75
2022/12/04 07:13:06;;;;;;;1999.90;999.90;;;3.90;99.90;;;;;;5060514;28;20052;-74
2022/12/04 07:15:33;;;;;;;1999.90;999.90;;;5.30;99.90;;;;;;5068920;28;20043;-74
2022/12/04 07:18:00;;;;;;;1999.90;999.90;;;3.80;99.90;;;;;;5066759;28;20072;-77
2022/12/04 07:20:26;;;;;;;1999.90;999.90;;;5.60;99.90;;;;;;5058559;28;20111;-75
2022/12/04 07:22:51;;;;;;;1999.90;999.90;;;3.10;99.90;;;;;;5061355;28;20091;-76
2022/12/04 07:25:17;;;;;;;1999.90;999.90;;;3.40;99.90;;;;;;5066936;28;20443;-80
2022/12/04 07:27:43;;;;;;;1999.90;999.90;;;3.20;99.90;;;;;;5063395;28;20555;-79
2022/12/04 07:30:09;;;;;;;1999.90;999.90;;;5.80;99.90;;;;;;5039604;28;20044;-84
2022/12/04 07:32:35;;;;;;;1999.90;999.90;;;3.50;99.90;;;;;;5060278;28;20086;-78
2022/12/04 07:35:02;;;;;;;1999.90;999.90;;;2.80;99.90;;;;;;5042999;28;20073;-81
2022/12/04 07:37:27;;;;;;;1999.90;999.90;;;3.00;99.90;;;;;;5053100;28;20480;-79
2022/12/04 07:39:53;;;;;;;1999.90;999.90;;;5.40;99.90;;;;;;5068307;28;20053;-80
2022/12/04 07:42:20;;;;;;;1999.90;999.90;;;3.60;99.90;;;;;;5066236;28;20052;-79
2022/12/04 07:44:46;;;;;;;1999.90;999.90;;;4.20;99.90;;;;;;5067057;28;20048;-80
2022/12/04 07:47:12;;;;;;;1999.90;999.90;;;3.40;99.90;;;;;;5067730;28;20053;-80
2022/12/04 07:49:37;;;;;;;1999.90;999.90;;;3.20;99.90;;;;;;5052171;28;20119;-80
2022/12/04 07:52:03;;;;;;;1999.90;999.90;;;1.30;99.90;;;;;;5065713;28;20060;-79
2022/12/04 07:54:29;;;;;;;1999.90;999.90;;;3.70;99.90;;;;;;5068061;28;20049;-80
2022/12/04 07:56:54;;;;;;;1999.90;999.90;;;3.00;99.90;;;;;;5061667;28;20056;-80
2022/12/04 07:59:20;;;;;;;1999.90;999.90;;;5.30;99.90;;;;;;5063180;28;20477;-80
2022/12/04 08:01:46;;;;;;;1999.90;999.90;;;3.80;99.90;;;;;;5071556;28;20051;-80
2022/12/04 08:04:11;;;;;;;1999.90;999.90;;;3.90;99.90;;;;;;5056197;28;20143;-79
2022/12/04 08:06:37;;;;;;;1999.90;999.90;;;4.80;99.90;;;;;;5053635;28;20044;-80
2022/12/04 08:09:04;;;;;;;1999.90;999.90;;;4.10;99.90;;;;;;5072752;28;20094;-79
2022/12/04 08:11:30;;;;;;;1999.90;999.90;;;3.00;99.90;;;;;;5072399;28;20091;-79
2022/12/04 08:13:58;;;;;;;1999.90;999.90;;;3.10;99.90;;;;;;5040285;28;20048;-80
2022/12/04 08:16:25;;;;;;;1999.90;999.90;;;5.00;99.90;;;;;;5070283;28;20051;-80
2022/12/04 08:18:52;;;;;;;1999.90;999.90;;;3.30;99.90;;;;;;5071080;28;20531;-85
2022/12/04 08:21:20;;;;;;;1999.90;999.90;;;5.40;99.90;;;;;;5071469;28;20052;-80
2022/12/04 08:23:49;;;;;;;1999.90;999.90;;;4.00;99.90;;;;;;5072924;28;20055;-80
2022/12/04 08:26:14;;;;;;;1999.90;999.90;;;5.80;99.90;;;;;;5073544;28;20072;-81
2022/12/04 08:28:41;;;;;;;1999.90;999.90;;;3.50;99.90;;;;;;5056834;28;20083;-81
2022/12/04 08:31:18;;;;;;;1999.90;999.90;;;2.90;99.90;;;;;;5053572;28;20052;-81
2022/12/04 08:33:46;;;;;;;1999.90;999.90;;;4.10;99.90;;;;;;5071184;28;20048;-80
2022/12/04 08:36:14;;;;;;;1999.90;999.90;;;2.80;99.90;;;;;;5072901;28;20045;-80
2022/12/04 08:38:40;;;;;;;1999.90;999.90;;;3.30;99.90;;;;;;5055998;28;20048;-80
2022/12/04 08:41:09;;;;;;;1999.90;999.90;;;4.40;99.90;;;;;;5052376;28;20393;-81
2022/12/04 08:43:35;;;;;;;1999.90;999.90;;;3.60;99.90;;;;;;5038011;28;20145;-81
2022/12/04 08:46:03;;;;;;;1999.90;999.90;;;3.50;99.90;;;;;;5072630;28;20099;-79
2022/12/04 08:48:29;;;;;;;1999.90;999.90;;;3.70;99.90;;;;;;5073344;28;20060;-81
2022/12/04 08:50:55;;;;;;;1999.90;999.90;;;2.90;99.90;;;;;;5052249;28;20045;-84
2022/12/04 08:53:22;;;;;;;1999.90;999.90;;;6.10;99.90;;;;;;5052653;28;20053;-81
2022/12/04 08:55:47;;;;;;;1999.90;999.90;;;3.60;99.90;;;;;;5053883;28;20045;-82
2022/12/04 08:58:13;;;;;;;1999.90;999.90;;;4.40;1.00;;;;;;5053669;28;20051;-82
2022/12/04 09:00:39;;;;;;;1999.90;999.90;;;5.30;1.00;;;;;;5069365;28;20497;-80
2022/12/04 09:03:05;;;;;;;1999.90;999.90;;;3.90;1.00;;;;;;5066349;28;20048;-80
2022/12/04 09:05:31;;;;;;;1999.90;999.90;;;6.20;99.90;;;;;;5068392;28;20048;-82
2022/12/04 09:07:57;;;;;;;1999.90;999.90;;;3.90;1.00;;;;;;5050921;28;20048;-81
2022/12/04 09:10:23;;;;;;;1999.90;999.90;;;3.80;1.00;;;;;;5052621;28;20041;-81
2022/12/04 09:12:49;;;;;;;1999.90;999.90;;;3.90;1.00;;;;;;5055887;28;20036;-80
2022/12/04 09:15:15;;;;;;;1999.90;999.90;;;5.90;99.90;;;;;;5036856;28;20382;-81
2022/12/04 09:17:40;;;;;;;1999.90;999.90;;;4.00;99.90;;;;;;5054270;28;20251;-81
2022/12/04 09:20:07;;;;;;;1999.90;999.90;;;3.80;1.00;;;;;;5052062;28;20094;-81
2022/12/04 09:22:36;;;;;;;1999.90;999.90;;;3.90;1.00;;;;;;5054685;28;20044;-81
2022/12/04 09:25:04;;;;;;;1999.90;999.90;;;3.90;1.00;;;;;;5043262;28;20477;-84
2022/12/04 09:27:34;;;;;;;1999.90;999.90;;;4.20;1.00;;;;;;5052546;28;20040;-81
2022/12/04 09:29:59;;;;;;;1999.90;999.90;;;5.20;1.00;;;;;;5064360;28;20044;-81
2022/12/04 09:32:25;;;;;;;1999.90;999.90;;;4.00;1.00;;;;;;5052709;28;20041;-81
2022/12/04 09:34:51;;;;;;;1999.90;999.90;;;5.40;1.00;;;;;;5051984;28;20071;-82
2022/12/04 09:37:17;;;;;;;1999.90;999.90;;;2.80;1.00;;;;;;5037161;28;20441;-81
2022/12/04 09:39:44;;;;;;;1999.90;999.90;;;4.60;1.00;;;;;;5073037;28;20052;-81
2022/12/04 09:42:25;;;;;;;1999.90;999.90;;;3.20;1.00;;;;;;5069827;28;20075;-81
2022/12/04 09:44:53;;;;;;;1999.90;999.90;;;4.10;1.00;;;;;;5039689;28;20307;-81
2022/12/04 09:47:45;;;;;;;1999.90;999.90;;;3.60;1.00;;;;;;5071315;28;20052;-82
2022/12/04 09:50:23;;;;;;;1999.90;999.90;;;4.20;1.00;;;;;;5036901;28;20135;-81
2022/12/04 09:52:59;;;;;;;1999.90;999.90;;;4.20;1.00;;;;;;5051711;28;20044;-83
2022/12/04 09:55:33;;;;;;;1999.90;999.90;;;4.10;99.90;;;;;;5071542;28;20564;-80
2022/12/04 09:58:02;;;;;;;1999.90;999.90;;;4.70;1.00;;;;;;5071021;28;20044;-82
2022/12/04 10:00:29;;;;;;;1999.90;999.90;;;3.90;1.00;;;;;;5068969;28;20040;-81
2022/12/04 10:03:00;;;;;;;1999.90;999.90;;;6.20;1.00;;;;;;5054335;28;20098;-81
2022/12/04 10:05:47;;;;;;;1999.90;999.90;;;6.70;1.00;;;;;;5035762;28;20044;-83
2022/12/04 10:08:30;;;;;;;1999.90;999.90;;;4.30;1.00;;;;;;5063031;28;20099;-82
2022/12/04 10:11:11;;;;;;;1999.90;999.90;;;5.20;1.00;;;;;;5050247;28;20051;-81
2022/12/04 10:13:58;;;;;;;1999.90;999.90;;;4.30;1.00;;;;;;5051303;28;20080;-81
2022/12/04 10:16:36;;;;;;;1999.90;999.90;;;4.40;99.90;;;;;;5038599;28;20040;-80
2022/12/04 10:19:31;;;;;;;1999.90;999.90;;;6.10;99.90;;;;;;5036869;28;20126;-81
2022/12/04 10:22:27;;;;;;;1999.90;999.90;;;2.40;99.90;;;;;;5066206;28;20059;-83
2022/12/04 10:25:02;;;;;;;1999.90;999.90;;;4.40;99.90;;;;;;5068577;28;20511;-81
2022/12/04 10:27:35;;;;;;;1999.90;999.90;;;4.80;99.90;;;;;;5070514;28;20048;-81
2022/12/04 10:30:20;;;;;;;1999.90;999.90;;;6.40;99.90;;;;;;5035375;28;20051;-81
2022/12/04 10:32:47;;;;;;;1999.90;999.90;;;4.60;99.90;;;;;;5025159;28;20048;-81
2022/12/04 10:35:31;;;;;;;1999.90;999.90;;;5.80;99.90;;;;;;5032892;28;20048;-81
2022/12/04 10:38:01;;;;;;;1999.90;999.90;;;5.50;99.90;;;;;;5049887;28;20044;-82
2022/12/04 10:40:37;;;;;;;1999.90;999.90;;;4.80;99.90;;;;;;5069234;28;20044;-81
2022/12/04 10:43:22;;;;;;;1999.90;999.90;;;4.70;99.90;;;;;;5040937;28;20045;-81
2022/12/04 10:45:48;;;;;;;1999.90;999.90;;;5.30;99.90;;;;;;5052262;28;20057;-80
2022/12/04 10:48:27;;;;;;;1999.90;999.90;;;8.50;99.90;;;;;;5067730;28;20063;-81
2022/12/04 10:50:55;;;;;;;1999.90;999.90;;;7.20;99.90;;;;;;5050919;28;20059;-81
2022/12/04 10:53:30;;;;;;;1999.90;999.90;;;4.90;99.90;;;;;;5043907;28;20056;-81
2022/12/04 10:56:20;;;;;;;1999.90;999.90;;;4.60;99.90;;;;;;5069495;28;20428;-80
2022/12/04 10:58:56;;;;;;;1999.90;999.90;;;5.40;99.90;;;;;;5050583;28;20048;-83
2022/12/04 11:01:22;;;;;;;1999.90;999.90;;;4.70;99.90;;;;;;5065411;28;20049;-80
2022/12/04 11:03:59;;;;;;;1999.90;999.90;;;5.10;99.90;;;;;;5069211;28;20102;-83
2022/12/04 11:06:28;;;;;;;1999.90;999.90;;;4.20;99.90;;;;;;5070230;28;20436;-81
2022/12/04 11:08:54;;;;;;;1999.90;999.90;;;4.20;99.90;;;;;;5048703;28;20052;-81
2022/12/04 11:11:30;;;;;;;1999.90;999.90;;;6.40;99.90;;;;;;5039225;28;20441;-80
2022/12/04 11:14:06;;;;;;;1999.90;999.90;;;5.10;99.90;;;;;;5045785;28;20076;-84
2022/12/04 11:16:39;;;;;;;1999.90;999.90;;;5.20;99.90;;;;;;5070410;28;20405;-81
2022/12/04 11:19:23;;;;;;;1999.90;999.90;;;5.20;99.90;;;;;;5049078;28;20044;-81
2022/12/04 11:21:50;;;;;;;1999.90;999.90;;;4.00;99.90;;;;;;5044036;28;20143;-82
2022/12/04 11:24:31;;;;;;;1999.90;999.90;;;7.10;99.90;;;;;;5048735;28;20052;-84
2022/12/04 11:26:57;;;;;;;1999.90;999.90;;;5.20;99.90;;;;;;5064880;28;20052;-81
2022/12/04 11:29:41;;;;;;;1999.90;999.90;;;4.70;99.90;;;;;;5070462;28;20044;-80
2022/12/04 11:32:24;;;;;;;1999.90;999.90;;;5.20;99.90;;;;;;5072226;28;20044;-82
2022/12/04 11:34:52;;;;;;;1999.90;999.90;;;5.20;99.90;;;;;;5050169;28;20044;-81
2022/12/04 11:37:27;;;;;;;1999.90;999.90;;;5.20;99.90;;;;;;5053349;28;20044;-83
2022/12/04 11:39:54;;;;;;;1999.90;999.90;;;5.20;99.90;;;;;;5056881;28;20127;-80
2022/12/04 11:42:26;;;;;;;1999.90;999.90;;;3.90;99.90;;;;;;5052336;28;20086;-85
2022/12/04 11:45:00;;;;;;;1999.90;999.90;;;6.10;99.90;;;;;;5075270;28;20435;-81
2022/12/04 11:47:28;;;;;;;1999.90;999.90;;;5.10;99.90;;;;;;5053133;28;20040;-81
2022/12/04 11:50:02;;;;;;;1999.90;999.90;;;5.70;99.90;;;;;;5073495;28;20131;-80
2022/12/04 11:52:46;;;;;;;1999.90;999.90;;;5.20;99.90;;;;;;5070035;28;20044;-82
2022/12/04 11:55:54;;;;;;;1999.90;999.90;;;7.30;99.90;;;;;;5044369;28;20052;-80
2022/12/04 11:58:46;;;;;;;1999.90;999.90;;;5.20;99.90;;;;;;5025183;28;20401;-84
2022/12/04 12:01:14;;;;;;;1999.90;999.90;;;5.20;99.90;;;;;;5044770;28;20060;-81
2022/12/04 12:04:19;;;;;;;1999.90;999.90;;;5.30;99.90;;;;;;5055166;28;20117;-81
2022/12/04 12:07:15;;;;;;;1999.90;999.90;;;3.30;99.90;;;;;;5016057;28;20056;-82
2022/12/04 12:10:22;;;;;;;1999.90;999.90;;;7.10;99.90;;;;;;5055992;28;20052;-81
2022/12/04 12:13:16;;;;;;;1999.90;999.90;;;5.20;99.90;;;;;;5070158;28;20033;-81
2022/12/04 12:15:59;;;;;;;1999.90;999.90;;;3.10;99.90;;;;;;5072240;28;20048;-81
2022/12/04 12:18:53;;;;;;;1999.90;999.90;;;5.60;99.90;;;;;;5071422;28;20063;-84
2022/12/04 12:21:37;;;;;;;1999.90;999.90;;;6.40;99.90;;;;;;5056837;28;20052;-81
2022/12/04 12:24:12;;;;;;;1999.90;999.90;;;7.20;99.90;;;;;;5053658;28;20055;-81
2022/12/04 12:26:59;;;;;;;1999.90;999.90;;;6.40;99.90;;;;;;5071437;28;20051;-82
2022/12/04 12:29:47;;;;;;;1999.90;999.90;;;6.50;99.90;;;;;;5070147;28;20149;-84
2022/12/04 12:32:15;;;;;;;1999.90;999.90;;;5.30;99.90;;;;;;5056845;28;20048;-82
2022/12/04 12:34:44;;;;;;;1999.90;999.90;;;5.30;99.90;;;;;;5054649;28;20401;-81
2022/12/04 12:37:20;;;;;;;1999.90;999.90;;;6.80;99.90;;;;;;5070956;28;20062;-82
2022/12/04 12:40:22;;;;;;;1999.90;999.90;;;5.30;99.90;;;;;;5071760;28;20645;-81
2022/12/04 12:42:54;;;;;;;1999.90;999.90;;;5.30;99.90;;;;;;5053472;28;20187;-81
2022/12/04 12:45:31;;;;;;;1999.90;999.90;;;5.30;99.90;;;;;;5073382;28;20041;-82